Monsenhor Paulo, Brazil
Current Conditions -  °F | °C
As of 7:00 PM on Saturday 24 Jan 2015 (Local Time) from SBPC Reporting Station
Few Clouds Few Clouds  
Wind Chill: 66°   Ceiling: Unl
Heat Index: 66°   Visibility: 6mi
Dew Point: 66°   Wind: 0mph
Humidity: 100%   Direction: NA
Pressure: 30.06"   Gusts: NA
Location:  21.76°S, 45.54°W
Report Text: SBPC 242100Z 00000KT 9999 FEW025 19/19 Q1018 RETS
Loading
Personal Weather Stations






























Interactive Weather Map New forecast layout! Learn more

10-Day Weather Forecast

Advertisements
Track Severe Weather on mobile